Altair — HP4625 — position and weather

sailwx.info

Track history (hours):
 
Tides and Currents Weather Stations Pressure Air Temp Water Temp Dewpoint Dewpoint Depression Visibility Wind Speed Wind Dir Waves Ship Positions

Altair

Last reported at 2018-Jul-15 09:30 UTC. Time now 2018-Jul-20 16:24 UTC.
Position N 27°48' W 015°20'.

Length 91 m; draft 4 m.

Type: Cargo ship. MMSI: 352160000.

Date/timePositionNaut miles runAvg speedWind from/ knotsBaromVisibWave heightAir tempDewpointWater temp
2018-Jul-15 09:30N 27°48' W 015°20'610.8
2018-Jul-15 08:59N 27°53' W 015°17'510.4
2018-Jul-15 08:30N 27°58' W 015°19'510.3
2018-Jul-15 08:00N 28°03' W 015°21'5 9.5
2018-Jul-15 07:30N 28°07' W 015°23'2 4.0
2018-Jul-15 07:00N 28°08' W 015°24'0 0.0
2018-Jul-15 06:30N 28°08' W 015°24'0 0.0
2018-Jul-15 06:00N 28°08' W 015°24'0 0.0
2018-Jul-15 05:30N 28°08' W 015°24'0 0.0
2018-Jul-15 04:59N 28°08' W 015°24'0 0.0
2018-Jul-15 04:30N 28°08' W 015°24'0 0.0
2018-Jul-15 04:00N 28°08' W 015°24'0 0.0
2018-Jul-15 03:30N 28°08' W 015°24'0 0.0
2018-Jul-15 03:00N 28°08' W 015°24'0 0.0
2018-Jul-15 02:30N 28°08' W 015°24'0 0.0
2018-Jul-15 02:00N 28°08' W 015°24'0 0.0
2018-Jul-15 01:30N 28°08' W 015°24'0 0.0
2018-Jul-15 01:00N 28°08' W 015°24'0 0.0
2018-Jul-15 00:30N 28°08' W 015°24'0 0.0
2018-Jul-15 00:00N 28°08' W 015°24'0 0.0
2018-Jul-14 23:29N 28°08' W 015°24'0 0.0
2018-Jul-14 23:00N 28°08' W 015°24'0 0.0
2018-Jul-14 22:30N 28°08' W 015°24'0 0.0
2018-Jul-14 22:00N 28°08' W 015°24'0 0.0
2018-Jul-14 21:29N 28°08' W 015°24'0 0.0
2018-Jul-14 21:00N 28°08' W 015°24'0 0.0
2018-Jul-14 20:29N 28°08' W 015°24'0 0.0
2018-Jul-14 20:00N 28°08' W 015°24'0 0.0
2018-Jul-14 19:30N 28°08' W 015°24'0 0.0
2018-Jul-14 19:00N 28°08' W 015°24'0 0.0
2018-Jul-14 18:30N 28°08' W 015°24'0 0.0
2018-Jul-14 18:00N 28°08' W 015°24'0 0.0
2018-Jul-14 17:30N 28°08' W 015°24'0 0.0
2018-Jul-14 17:00N 28°08' W 015°24'0 0.0
2018-Jul-14 16:30N 28°08' W 015°24'0 0.0
2018-Jul-14 16:00N 28°08' W 015°24'0 0.0
2018-Jul-14 15:30N 28°08' W 015°24'0 0.0
2018-Jul-14 15:00N 28°08' W 015°24'0 0.0
2018-Jul-14 14:00N 28°08' W 015°24'0 0.0
2018-Jul-14 13:30N 28°08' W 015°24'0 0.0
2018-Jul-14 13:00N 28°08' W 015°24'0 0.0
2018-Jul-14 12:29N 28°08' W 015°24'0 0.0
2018-Jul-14 12:00N 28°08' W 015°24'0 0.0
2018-Jul-14 11:30N 28°08' W 015°24'0 0.0
2018-Jul-14 11:00N 28°08' W 015°24'0 0.0
2018-Jul-14 10:30N 28°08' W 015°24'0 0.0
2018-Jul-14 10:00N 28°08' W 015°24'0 0.0
2018-Jul-14 09:30N 28°08' W 015°24'0 0.0
2018-Jul-14 09:00N 28°08' W 015°24'0 0.0
2018-Jul-14 08:30N 28°08' W 015°24'0 0.0
2018-Jul-14 08:00N 28°08' W 015°24'0 0.0
2018-Jul-14 07:30N 28°08' W 015°24'0 0.0
2018-Jul-14 07:00N 28°08' W 015°24'0 0.0
2018-Jul-14 06:30N 28°08' W 015°24'0 0.0
2018-Jul-14 06:00N 28°08' W 015°24'1 2.8
2018-Jul-14 05:30N 28°07' W 015°24'4 7.4
2018-Jul-14 04:59N 28°10' W 015°22'510.1
2018-Jul-14 04:30N 28°15' W 015°20'510.1
2018-Jul-14 04:00N 28°20' W 015°18'510.1
2018-Jul-14 03:30N 28°24' W 015°16'5 9.9
2018-Jul-14 03:00N 28°29' W 015°14'510.0
2018-Jul-14 02:30N 28°34' W 015°12'510.3
2018-Jul-14 02:00N 28°38' W 015°10'510.4
2018-Jul-14 01:30N 28°43' W 015°08'510.7
2018-Jul-14 01:00N 28°48' W 015°05'510.3
2018-Jul-14 00:30N 28°53' W 015°03'38 9.9
2018-Jul-13 20:41N 29°29' W 014°48'210.1
2018-Jul-13 20:30N 29°30' W 014°48'  
2018-Jul-11 12:42N 38°02' W 010°59'710.2
2018-Jul-11 11:58N 38°09' W 010°56'4310.3
2018-Jul-11 07:48N 38°50' W 010°38'310.3
2018-Jul-11 07:30N 38°53' W 010°36'510.3
2018-Jul-11 06:59N 38°58' W 010°34'510.1
2018-Jul-11 06:30N 39°02' W 010°32'510.3
2018-Jul-11 05:59N 39°07' W 010°29'5 9.9
2018-Jul-11 05:30N 39°12' W 010°27'5 9.8
2018-Jul-11 04:59N 39°16' W 010°25'610.1
2018-Jul-11 04:24N 39°22' W 010°22'4 9.9
2018-Jul-11 04:00N 39°26' W 010°21'1110.1
2018-Jul-11 02:57N 39°36' W 010°16'510.3
2018-Jul-11 02:28N 39°40' W 010°14'5 9.8
2018-Jul-11 01:55N 39°44' W 010°08'9 9.9
2018-Jul-11 00:58N 39°50' W 009°59'5 9.8
2018-Jul-11 00:27N 39°53' W 009°54'4 9.6
2018-Jul-11 00:00N 39°56' W 009°50'16 9.8
2018-Jul-10 22:24N 40°06' W 009°34'  
2018-Jul-08 02:56N 39°12' W 010°46'6 9.9
2018-Jul-08 02:19N 39°06' W 010°49'50 9.9
2018-Jul-07 21:18N 38°20' W 011°13'3 9.8
2018-Jul-07 21:00N 38°17' W 011°14'6310.1
2018-Jul-07 14:46N 37°19' W 011°45'  
2018-Jul-05 09:58N 29°49' W 015°29'  
Track history (hours):
 
Tides and Currents Weather Stations Pressure Air Temp Water Temp Dewpoint Dewpoint Depression Visibility Wind Speed Wind Dir Waves Ship Positions

Altair

Last reported at 2018-Jul-15 09:30 UTC. Time now 2018-Jul-20 16:24 UTC.
Position N 27°48' W 015°20'.

Length 91 m; draft 4 m.

Type: Cargo ship. MMSI: 352160000.

Date/timePositionNaut miles runAvg speedWind from/ knotsBaromVisibWave heightAir tempDewpointWater temp
2018-Jul-15 09:30N 27°48' W 015°20'610.8
2018-Jul-15 08:59N 27°53' W 015°17'510.4
2018-Jul-15 08:30N 27°58' W 015°19'510.3
2018-Jul-15 08:00N 28°03' W 015°21'5 9.5
2018-Jul-15 07:30N 28°07' W 015°23'2 4.0
2018-Jul-15 07:00N 28°08' W 015°24'0 0.0
2018-Jul-15 06:30N 28°08' W 015°24'0 0.0
2018-Jul-15 06:00N 28°08' W 015°24'0 0.0
2018-Jul-15 05:30N 28°08' W 015°24'0 0.0
2018-Jul-15 04:59N 28°08' W 015°24'0 0.0
2018-Jul-15 04:30N 28°08' W 015°24'0 0.0
2018-Jul-15 04:00N 28°08' W 015°24'0 0.0
2018-Jul-15 03:30N 28°08' W 015°24'0 0.0
2018-Jul-15 03:00N 28°08' W 015°24'0 0.0
2018-Jul-15 02:30N 28°08' W 015°24'0 0.0
2018-Jul-15 02:00N 28°08' W 015°24'0 0.0
2018-Jul-15 01:30N 28°08' W 015°24'0 0.0
2018-Jul-15 01:00N 28°08' W 015°24'0 0.0
2018-Jul-15 00:30N 28°08' W 015°24'0 0.0
2018-Jul-15 00:00N 28°08' W 015°24'0 0.0
2018-Jul-14 23:29N 28°08' W 015°24'0 0.0
2018-Jul-14 23:00N 28°08' W 015°24'0 0.0
2018-Jul-14 22:30N 28°08' W 015°24'0 0.0
2018-Jul-14 22:00N 28°08' W 015°24'0 0.0
2018-Jul-14 21:29N 28°08' W 015°24'0 0.0
2018-Jul-14 21:00N 28°08' W 015°24'0 0.0
2018-Jul-14 20:29N 28°08' W 015°24'0 0.0
2018-Jul-14 20:00N 28°08' W 015°24'0 0.0
2018-Jul-14 19:30N 28°08' W 015°24'0 0.0
2018-Jul-14 19:00N 28°08' W 015°24'0 0.0
2018-Jul-14 18:30N 28°08' W 015°24'0 0.0
2018-Jul-14 18:00N 28°08' W 015°24'0 0.0
2018-Jul-14 17:30N 28°08' W 015°24'0 0.0
2018-Jul-14 17:00N 28°08' W 015°24'0 0.0
2018-Jul-14 16:30N 28°08' W 015°24'0 0.0
2018-Jul-14 16:00N 28°08' W 015°24'0 0.0
2018-Jul-14 15:30N 28°08' W 015°24'0 0.0
2018-Jul-14 15:00N 28°08' W 015°24'0 0.0
2018-Jul-14 14:00N 28°08' W 015°24'0 0.0
2018-Jul-14 13:30N 28°08' W 015°24'0 0.0
2018-Jul-14 13:00N 28°08' W 015°24'0 0.0
2018-Jul-14 12:29N 28°08' W 015°24'0 0.0
2018-Jul-14 12:00N 28°08' W 015°24'0 0.0
2018-Jul-14 11:30N 28°08' W 015°24'0 0.0
2018-Jul-14 11:00N 28°08' W 015°24'0 0.0
2018-Jul-14 10:30N 28°08' W 015°24'0 0.0
2018-Jul-14 10:00N 28°08' W 015°24'0 0.0
2018-Jul-14 09:30N 28°08' W 015°24'0 0.0
2018-Jul-14 09:00N 28°08' W 015°24'0 0.0
2018-Jul-14 08:30N 28°08' W 015°24'0 0.0
2018-Jul-14 08:00N 28°08' W 015°24'0 0.0
2018-Jul-14 07:30N 28°08' W 015°24'0 0.0
2018-Jul-14 07:00N 28°08' W 015°24'0 0.0
2018-Jul-14 06:30N 28°08' W 015°24'0 0.0
2018-Jul-14 06:00N 28°08' W 015°24'1 2.8
2018-Jul-14 05:30N 28°07' W 015°24'4 7.4
2018-Jul-14 04:59N 28°10' W 015°22'510.1
2018-Jul-14 04:30N 28°15' W 015°20'510.1
2018-Jul-14 04:00N 28°20' W 015°18'510.1
2018-Jul-14 03:30N 28°24' W 015°16'5 9.9
2018-Jul-14 03:00N 28°29' W 015°14'510.0
2018-Jul-14 02:30N 28°34' W 015°12'510.3
2018-Jul-14 02:00N 28°38' W 015°10'510.4
2018-Jul-14 01:30N 28°43' W 015°08'510.7
2018-Jul-14 01:00N 28°48' W 015°05'510.3
2018-Jul-14 00:30N 28°53' W 015°03'38 9.9
2018-Jul-13 20:41N 29°29' W 014°48'210.1
2018-Jul-13 20:30N 29°30' W 014°48'  
2018-Jul-11 12:42N 38°02' W 010°59'710.2
2018-Jul-11 11:58N 38°09' W 010°56'4310.3
2018-Jul-11 07:48N 38°50' W 010°38'310.3
2018-Jul-11 07:30N 38°53' W 010°36'510.3
2018-Jul-11 06:59N 38°58' W 010°34'510.1
2018-Jul-11 06:30N 39°02' W 010°32'510.3
2018-Jul-11 05:59N 39°07' W 010°29'5 9.9
2018-Jul-11 05:30N 39°12' W 010°27'5 9.8
2018-Jul-11 04:59N 39°16' W 010°25'610.1
2018-Jul-11 04:24N 39°22' W 010°22'4 9.9
2018-Jul-11 04:00N 39°26' W 010°21'1110.1
2018-Jul-11 02:57N 39°36' W 010°16'510.3
2018-Jul-11 02:28N 39°40' W 010°14'5 9.8
2018-Jul-11 01:55N 39°44' W 010°08'9 9.9
2018-Jul-11 00:58N 39°50' W 009°59'5 9.8
2018-Jul-11 00:27N 39°53' W 009°54'4 9.6
2018-Jul-11 00:00N 39°56' W 009°50'16 9.8
2018-Jul-10 22:24N 40°06' W 009°34'  
2018-Jul-08 02:56N 39°12' W 010°46'6 9.9
2018-Jul-08 02:19N 39°06' W 010°49'50 9.9
2018-Jul-07 21:18N 38°20' W 011°13'3 9.8
2018-Jul-07 21:00N 38°17' W 011°14'6310.1
2018-Jul-07 14:46N 37°19' W 011°45'  
2018-Jul-05 09:58N 29°49' W 015°29'  

Dump ship's entire track history